sensor_id;sensor_type;location;lat;lon;timestamp;temperature;humidity
34574;DHT22;20809;49.594;8.734;2023-04-25T00:00:39;7.80;99.90
34574;DHT22;20809;49.594;8.734;2023-04-25T00:03:39;7.80;99.90
34574;DHT22;20809;49.594;8.734;2023-04-25T00:06:40;7.80;99.90
34574;DHT22;20809;49.594;8.734;2023-04-25T00:09:41;7.80;99.90
34574;DHT22;20809;49.594;8.734;2023-04-25T00:12:42;7.80;99.90
34574;DHT22;20809;49.594;8.734;2023-04-25T00:15:43;7.70;99.90
34574;DHT22;20809;49.594;8.734;2023-04-25T00:18:44;7.70;99.90
34574;DHT22;20809;49.594;8.734;2023-04-25T00:21:51;7.80;99.90
34574;DHT22;20809;49.594;8.734;2023-04-25T00:24:52;7.80;99.90
34574;DHT22;20809;49.594;8.734;2023-04-25T00:27:54;7.80;99.90
34574;DHT22;20809;49.594;8.734;2023-04-25T00:30:55;7.70;99.90
34574;DHT22;20809;49.594;8.734;2023-04-25T00:33:55;7.80;99.90
34574;DHT22;20809;49.594;8.734;2023-04-25T00:36:56;7.70;99.90
34574;DHT22;20809;49.594;8.734;2023-04-25T00:39:58;7.70;99.90
34574;DHT22;20809;49.594;8.734;2023-04-25T00:42:58;7.70;99.90
34574;DHT22;20809;49.594;8.734;2023-04-25T00:46:00;7.70;99.90
34574;DHT22;20809;49.594;8.734;2023-04-25T00:49:01;7.80;99.90
34574;DHT22;20809;49.594;8.734;2023-04-25T00:52:02;7.80;99.90
34574;DHT22;20809;49.594;8.734;2023-04-25T00:59:05;7.80;99.90
34574;DHT22;20809;49.594;8.734;2023-04-25T01:02:06;7.90;99.90
34574;DHT22;20809;49.594;8.734;2023-04-25T01:05:08;7.80;99.90
34574;DHT22;20809;49.594;8.734;2023-04-25T01:08:09;7.90;99.90
34574;DHT22;20809;49.594;8.734;2023-04-25T01:11:10;7.90;99.90
34574;DHT22;20809;49.594;8.734;2023-04-25T01:14:11;7.90;99.90
34574;DHT22;20809;49.594;8.734;2023-04-25T01:17:12;7.90;99.90
34574;DHT22;20809;49.594;8.734;2023-04-25T01:20:46;7.90;99.90
34574;DHT22;20809;49.594;8.734;2023-04-25T01:36:04;7.80;99.90
34574;DHT22;20809;49.594;8.734;2023-04-25T01:51:12;7.70;99.90
34574;DHT22;20809;49.594;8.734;2023-04-25T01:54:13;7.80;99.90
34574;DHT22;20809;49.594;8.734;2023-04-25T01:57:14;7.70;99.90
34574;DHT22;20809;49.594;8.734;2023-04-25T02:00:15;7.80;99.90
34574;DHT22;20809;49.594;8.734;2023-04-25T02:03:16;7.90;99.90
34574;DHT22;20809;49.594;8.734;2023-04-25T02:06:17;7.80;99.90
34574;DHT22;20809;49.594;8.734;2023-04-25T02:09:17;7.90;99.90
34574;DHT22;20809;49.594;8.734;2023-04-25T02:12:18;7.80;99.90
34574;DHT22;20809;49.594;8.734;2023-04-25T02:15:19;7.80;99.90
34574;DHT22;20809;49.594;8.734;2023-04-25T02:18:20;7.70;99.90
34574;DHT22;20809;49.594;8.734;2023-04-25T02:21:21;7.70;99.90
34574;DHT22;20809;49.594;8.734;2023-04-25T02:24:22;7.70;99.90
34574;DHT22;20809;49.594;8.734;2023-04-25T02:27:23;7.70;99.90
34574;DHT22;20809;49.594;8.734;2023-04-25T02:30:23;7.60;99.90
34574;DHT22;20809;49.594;8.734;2023-04-25T02:33:24;7.60;99.90
34574;DHT22;20809;49.594;8.734;2023-04-25T02:36:25;7.60;99.90
34574;DHT22;20809;49.594;8.734;2023-04-25T02:39:27;7.50;99.90
34574;DHT22;20809;49.594;8.734;2023-04-25T02:57:34;7.60;99.90
34574;DHT22;20809;49.594;8.734;2023-04-25T03:00:34;7.60;99.90
34574;DHT22;20809;49.594;8.734;2023-04-25T03:03:35;7.50;99.90
34574;DHT22;20809;49.594;8.734;2023-04-25T03:06:35;7.60;99.90
34574;DHT22;20809;49.594;8.734;2023-04-25T03:09:36;7.60;99.90
34574;DHT22;20809;49.594;8.734;2023-04-25T03:12:37;7.50;99.90
34574;DHT22;20809;49.594;8.734;2023-04-25T03:22:06;7.50;99.90
34574;DHT22;20809;49.594;8.734;2023-04-25T03:25:07;7.50;99.90
34574;DHT22;20809;49.594;8.734;2023-04-25T03:28:08;7.50;99.90
34574;DHT22;20809;49.594;8.734;2023-04-25T03:31:08;7.60;99.90
34574;DHT22;20809;49.594;8.734;2023-04-25T03:34:09;7.70;99.90
34574;DHT22;20809;49.594;8.734;2023-04-25T03:37:09;7.70;99.90
34574;DHT22;20809;49.594;8.734;2023-04-25T03:40:10;7.70;99.90
34574;DHT22;20809;49.594;8.734;2023-04-25T03:43:10;7.70;99.90
34574;DHT22;20809;49.594;8.734;2023-04-25T03:46:11;7.70;99.90
34574;DHT22;20809;49.594;8.734;2023-04-25T03:49:12;7.70;99.90
34574;DHT22;20809;49.594;8.734;2023-04-25T03:52:13;7.80;99.90
34574;DHT22;20809;49.594;8.734;2023-04-25T03:55:14;7.80;99.90
34574;DHT22;20809;49.594;8.734;2023-04-25T03:58:14;7.80;99.90
34574;DHT22;20809;49.594;8.734;2023-04-25T04:01:15;7.80;99.90
34574;DHT22;20809;49.594;8.734;2023-04-25T04:04:16;7.80;99.90
34574;DHT22;20809;49.594;8.734;2023-04-25T04:07:16;7.80;99.90
34574;DHT22;20809;49.594;8.734;2023-04-25T04:10:17;7.80;99.90
34574;DHT22;20809;49.594;8.734;2023-04-25T04:13:17;7.80;99.90
34574;DHT22;20809;49.594;8.734;2023-04-25T04:16:18;7.80;99.90
34574;DHT22;20809;49.594;8.734;2023-04-25T04:19:19;7.80;99.90
34574;DHT22;20809;49.594;8.734;2023-04-25T04:22:19;7.80;99.90
34574;DHT22;20809;49.594;8.734;2023-04-25T04:25:20;7.70;99.90
34574;DHT22;20809;49.594;8.734;2023-04-25T04:28:20;7.70;99.90
34574;DHT22;20809;49.594;8.734;2023-04-25T04:31:22;7.70;99.90
34574;DHT22;20809;49.594;8.734;2023-04-25T04:34:23;7.70;99.90
34574;DHT22;20809;49.594;8.734;2023-04-25T04:37:25;7.80;99.90
34574;DHT22;20809;49.594;8.734;2023-04-25T04:40:25;7.80;99.90
34574;DHT22;20809;49.594;8.734;2023-04-25T04:43:26;7.80;99.90
34574;DHT22;20809;49.594;8.734;2023-04-25T04:46:27;7.80;99.90
34574;DHT22;20809;49.594;8.734;2023-04-25T04:49:28;7.90;99.90
34574;DHT22;20809;49.594;8.734;2023-04-25T04:52:29;7.90;99.90
34574;DHT22;20809;49.594;8.734;2023-04-25T04:55:30;7.90;99.90
34574;DHT22;20809;49.594;8.734;2023-04-25T04:58:31;7.90;99.90
34574;DHT22;20809;49.594;8.734;2023-04-25T05:01:31;8.00;99.90
34574;DHT22;20809;49.594;8.734;2023-04-25T05:04:32;8.00;99.90
34574;DHT22;20809;49.594;8.734;2023-04-25T05:07:32;8.00;99.90
34574;DHT22;20809;49.594;8.734;2023-04-25T05:10:33;8.00;99.90
34574;DHT22;20809;49.594;8.734;2023-04-25T05:13:34;8.00;99.90
34574;DHT22;20809;49.594;8.734;2023-04-25T05:16:37;8.10;99.90
34574;DHT22;20809;49.594;8.734;2023-04-25T05:19:39;8.20;99.90
34574;DHT22;20809;49.594;8.734;2023-04-25T05:22:39;8.20;99.90
34574;DHT22;20809;49.594;8.734;2023-04-25T05:25:42;8.30;99.90
34574;DHT22;20809;49.594;8.734;2023-04-25T05:28:42;8.30;99.90
34574;DHT22;20809;49.594;8.734;2023-04-25T05:32:20;8.30;99.90
34574;DHT22;20809;49.594;8.734;2023-04-25T05:35:24;8.40;99.90
34574;DHT22;20809;49.594;8.734;2023-04-25T05:38:25;8.40;99.90
34574;DHT22;20809;49.594;8.734;2023-04-25T05:41:38;8.50;99.90
34574;DHT22;20809;49.594;8.734;2023-04-25T05:44:42;8.60;99.90
34574;DHT22;20809;49.594;8.734;2023-04-25T05:47:42;8.70;99.90
34574;DHT22;20809;49.594;8.734;2023-04-25T05:50:43;8.90;99.90
34574;DHT22;20809;49.594;8.734;2023-04-25T05:53:43;8.90;99.90
34574;DHT22;20809;49.594;8.734;2023-04-25T05:56:44;9.00;99.90
34574;DHT22;20809;49.594;8.734;2023-04-25T05:59:45;9.10;99.90
34574;DHT22;20809;49.594;8.734;2023-04-25T06:02:46;9.10;99.90
34574;DHT22;20809;49.594;8.734;2023-04-25T06:05:47;9.00;99.90
34574;DHT22;20809;49.594;8.734;2023-04-25T06:08:47;8.90;99.90
34574;DHT22;20809;49.594;8.734;2023-04-25T06:11:48;8.90;99.90
34574;DHT22;20809;49.594;8.734;2023-04-25T06:14:49;9.00;99.90
34574;DHT22;20809;49.594;8.734;2023-04-25T06:17:50;9.10;99.90
34574;DHT22;20809;49.594;8.734;2023-04-25T06:21:20;9.20;99.90
34574;DHT22;20809;49.594;8.734;2023-04-25T06:24:20;9.40;99.90
34574;DHT22;20809;49.594;8.734;2023-04-25T06:27:21;9.50;99.90
34574;DHT22;20809;49.594;8.734;2023-04-25T06:30:22;9.50;99.90
34574;DHT22;20809;49.594;8.734;2023-04-25T06:33:25;9.30;99.90
34574;DHT22;20809;49.594;8.734;2023-04-25T06:36:27;9.20;99.90
34574;DHT22;20809;49.594;8.734;2023-04-25T06:39:28;8.90;99.90
34574;DHT22;20809;49.594;8.734;2023-04-25T06:42:28;8.60;99.90
34574;DHT22;20809;49.594;8.734;2023-04-25T06:45:44;8.60;99.90
34574;DHT22;20809;49.594;8.734;2023-04-25T06:48:47;8.60;99.90
34574;DHT22;20809;49.594;8.734;2023-04-25T06:51:48;8.60;99.90
34574;DHT22;20809;49.594;8.734;2023-04-25T06:54:49;8.80;99.90
34574;DHT22;20809;49.594;8.734;2023-04-25T06:57:49;8.90;99.90
34574;DHT22;20809;49.594;8.734;2023-04-25T07:00:50;9.00;99.90
34574;DHT22;20809;49.594;8.734;2023-04-25T07:03:51;9.20;99.90
34574;DHT22;20809;49.594;8.734;2023-04-25T07:06:51;9.30;99.90
34574;DHT22;20809;49.594;8.734;2023-04-25T07:09:52;9.60;99.90
34574;DHT22;20809;49.594;8.734;2023-04-25T07:12:53;9.40;99.90
34574;DHT22;20809;49.594;8.734;2023-04-25T07:15:54;9.60;99.90
34574;DHT22;20809;49.594;8.734;2023-04-25T07:18:55;10.00;99.90
34574;DHT22;20809;49.594;8.734;2023-04-25T07:21:56;10.30;99.90
34574;DHT22;20809;49.594;8.734;2023-04-25T07:24:57;10.50;99.90
34574;DHT22;20809;49.594;8.734;2023-04-25T07:27:57;10.80;99.90
34574;DHT22;20809;49.594;8.734;2023-04-25T07:30:58;10.60;99.90
34574;DHT22;20809;49.594;8.734;2023-04-25T07:33:59;10.40;99.90
34574;DHT22;20809;49.594;8.734;2023-04-25T07:37:00;10.60;99.90
34574;DHT22;20809;49.594;8.734;2023-04-25T07:40:02;10.70;99.90
34574;DHT22;20809;49.594;8.734;2023-04-25T07:43:04;10.80;99.90
34574;DHT22;20809;49.594;8.734;2023-04-25T07:46:07;10.90;99.90
34574;DHT22;20809;49.594;8.734;2023-04-25T07:49:07;11.10;99.90
34574;DHT22;20809;49.594;8.734;2023-04-25T07:52:08;11.10;99.90
34574;DHT22;20809;49.594;8.734;2023-04-25T07:55:09;11.10;99.90
34574;DHT22;20809;49.594;8.734;2023-04-25T07:58:11;10.60;99.90
34574;DHT22;20809;49.594;8.734;2023-04-25T08:01:12;10.60;99.90
34574;DHT22;20809;49.594;8.734;2023-04-25T08:04:13;10.80;99.90
34574;DHT22;20809;49.594;8.734;2023-04-25T08:07:13;11.10;99.90
34574;DHT22;20809;49.594;8.734;2023-04-25T08:10:17;11.60;99.90
34574;DHT22;20809;49.594;8.734;2023-04-25T08:13:18;11.70;99.90
34574;DHT22;20809;49.594;8.734;2023-04-25T08:16:22;11.70;99.90
34574;DHT22;20809;49.594;8.734;2023-04-25T08:19:22;12.10;99.90
34574;DHT22;20809;49.594;8.734;2023-04-25T08:22:23;12.80;99.90
34574;DHT22;20809;49.594;8.734;2023-04-25T08:25:23;13.30;99.90
34574;DHT22;20809;49.594;8.734;2023-04-25T08:28:25;13.30;99.90
34574;DHT22;20809;49.594;8.734;2023-04-25T08:31:26;13.00;99.90
34574;DHT22;20809;49.594;8.734;2023-04-25T08:34:27;13.30;99.90
34574;DHT22;20809;49.594;8.734;2023-04-25T08:37:28;13.20;99.90
34574;DHT22;20809;49.594;8.734;2023-04-25T08:40:29;12.90;99.90
34574;DHT22;20809;49.594;8.734;2023-04-25T08:43:30;12.90;99.90
34574;DHT22;20809;49.594;8.734;2023-04-25T08:46:31;12.60;99.90
34574;DHT22;20809;49.594;8.734;2023-04-25T08:49:32;12.10;99.90
34574;DHT22;20809;49.594;8.734;2023-04-25T08:52:43;11.90;99.90
34574;DHT22;20809;49.594;8.734;2023-04-25T08:55:45;11.60;99.90
34574;DHT22;20809;49.594;8.734;2023-04-25T08:58:48;11.60;99.90
34574;DHT22;20809;49.594;8.734;2023-04-25T09:01:50;11.60;99.90
34574;DHT22;20809;49.594;8.734;2023-04-25T09:04:53;11.60;99.90
34574;DHT22;20809;49.594;8.734;2023-04-25T09:07:55;11.70;99.90
34574;DHT22;20809;49.594;8.734;2023-04-25T09:10:56;12.00;99.90
34574;DHT22;20809;49.594;8.734;2023-04-25T09:14:20;12.40;99.90
34574;DHT22;20809;49.594;8.734;2023-04-25T09:17:21;12.70;99.90
34574;DHT22;20809;49.594;8.734;2023-04-25T09:20:22;13.10;99.90
34574;DHT22;20809;49.594;8.734;2023-04-25T09:23:23;13.60;99.90
34574;DHT22;20809;49.594;8.734;2023-04-25T09:26:25;13.90;99.90
34574;DHT22;20809;49.594;8.734;2023-04-25T09:37:24;14.20;99.90
34574;DHT22;20809;49.594;8.734;2023-04-25T09:40:25;14.70;99.90
34574;DHT22;20809;49.594;8.734;2023-04-25T09:43:25;15.20;99.90
34574;DHT22;20809;49.594;8.734;2023-04-25T09:46:35;15.80;99.90
34574;DHT22;20809;49.594;8.734;2023-04-25T09:49:40;15.90;99.90
34574;DHT22;20809;49.594;8.734;2023-04-25T09:52:44;15.60;99.90
34574;DHT22;20809;49.594;8.734;2023-04-25T09:55:45;15.20;99.90
34574;DHT22;20809;49.594;8.734;2023-04-25T09:58:47;15.20;99.90
34574;DHT22;20809;49.594;8.734;2023-04-25T10:01:49;15.20;99.90
34574;DHT22;20809;49.594;8.734;2023-04-25T10:04:54;15.30;99.90
34574;DHT22;20809;49.594;8.734;2023-04-25T10:07:55;14.90;99.90
34574;DHT22;20809;49.594;8.734;2023-04-25T10:10:59;14.50;99.90
34574;DHT22;20809;49.594;8.734;2023-04-25T10:14:00;14.40;99.90
34574;DHT22;20809;49.594;8.734;2023-04-25T10:17:01;14.40;99.90
34574;DHT22;20809;49.594;8.734;2023-04-25T10:20:06;15.40;99.90
34574;DHT22;20809;49.594;8.734;2023-04-25T10:23:13;15.90;99.90
34574;DHT22;20809;49.594;8.734;2023-04-25T10:26:15;15.80;99.90
34574;DHT22;20809;49.594;8.734;2023-04-25T10:29:24;15.50;99.90
34574;DHT22;20809;49.594;8.734;2023-04-25T10:32:24;15.70;99.90
34574;DHT22;20809;49.594;8.734;2023-04-25T10:35:26;15.70;99.90
34574;DHT22;20809;49.594;8.734;2023-04-25T10:38:37;16.20;99.90
34574;DHT22;20809;49.594;8.734;2023-04-25T10:41:48;16.40;99.90
34574;DHT22;20809;49.594;8.734;2023-04-25T10:45:05;16.50;99.90
34574;DHT22;20809;49.594;8.734;2023-04-25T10:48:28;16.30;99.90
34574;DHT22;20809;49.594;8.734;2023-04-25T10:51:33;15.90;99.90
34574;DHT22;20809;49.594;8.734;2023-04-25T10:54:34;16.00;99.90
34574;DHT22;20809;49.594;8.734;2023-04-25T10:57:45;16.30;99.90
34574;DHT22;20809;49.594;8.734;2023-04-25T11:00:50;16.20;99.90
34574;DHT22;20809;49.594;8.734;2023-04-25T11:03:57;16.20;99.90
34574;DHT22;20809;49.594;8.734;2023-04-25T11:10:42;16.60;99.90
34574;DHT22;20809;49.594;8.734;2023-04-25T11:13:43;16.50;99.90
34574;DHT22;20809;49.594;8.734;2023-04-25T11:16:47;16.30;99.90
34574;DHT22;20809;49.594;8.734;2023-04-25T11:19:48;15.80;99.90
34574;DHT22;20809;49.594;8.734;2023-04-25T11:22:49;15.10;99.90
34574;DHT22;20809;49.594;8.734;2023-04-25T11:25:50;14.40;99.90
34574;DHT22;20809;49.594;8.734;2023-04-25T11:28:57;14.00;99.90
34574;DHT22;20809;49.594;8.734;2023-04-25T11:31:59;13.30;99.90
34574;DHT22;20809;49.594;8.734;2023-04-25T11:35:01;12.90;99.90
34574;DHT22;20809;49.594;8.734;2023-04-25T11:38:04;12.70;99.90
34574;DHT22;20809;49.594;8.734;2023-04-25T11:41:05;12.40;99.90
34574;DHT22;20809;49.594;8.734;2023-04-25T11:44:05;12.50;99.90
34574;DHT22;20809;49.594;8.734;2023-04-25T11:47:06;12.60;99.90
34574;DHT22;20809;49.594;8.734;2023-04-25T11:50:08;13.00;99.90
34574;DHT22;20809;49.594;8.734;2023-04-25T11:53:08;13.00;99.90
34574;DHT22;20809;49.594;8.734;2023-04-25T11:56:11;13.20;99.90
34574;DHT22;20809;49.594;8.734;2023-04-25T11:59:12;13.50;99.90
34574;DHT22;20809;49.594;8.734;2023-04-25T12:02:24;13.30;99.90
34574;DHT22;20809;49.594;8.734;2023-04-25T12:05:28;13.30;99.90
34574;DHT22;20809;49.594;8.734;2023-04-25T12:08:29;13.30;99.90
34574;DHT22;20809;49.594;8.734;2023-04-25T12:11:30;13.10;99.90
34574;DHT22;20809;49.594;8.734;2023-04-25T12:14:34;13.00;99.90
34574;DHT22;20809;49.594;8.734;2023-04-25T12:17:35;13.00;99.90
34574;DHT22;20809;49.594;8.734;2023-04-25T12:20:38;13.10;99.90
34574;DHT22;20809;49.594;8.734;2023-04-25T12:23:39;13.10;99.90
34574;DHT22;20809;49.594;8.734;2023-04-25T12:27:00;13.50;99.90
34574;DHT22;20809;49.594;8.734;2023-04-25T12:30:01;14.10;99.90
34574;DHT22;20809;49.594;8.734;2023-04-25T12:33:02;14.30;99.90
34574;DHT22;20809;49.594;8.734;2023-04-25T12:36:06;14.70;99.90
34574;DHT22;20809;49.594;8.734;2023-04-25T12:39:29;15.40;99.90
34574;DHT22;20809;49.594;8.734;2023-04-25T12:42:30;16.30;99.90
34574;DHT22;20809;49.594;8.734;2023-04-25T12:45:31;16.50;99.90
34574;DHT22;20809;49.594;8.734;2023-04-25T12:48:31;17.00;99.90
34574;DHT22;20809;49.594;8.734;2023-04-25T12:51:32;17.30;99.90
34574;DHT22;20809;49.594;8.734;2023-04-25T12:54:33;17.10;99.90
34574;DHT22;20809;49.594;8.734;2023-04-25T12:57:33;16.70;99.90
34574;DHT22;20809;49.594;8.734;2023-04-25T13:00:34;16.70;99.90
34574;DHT22;20809;49.594;8.734;2023-04-25T13:03:35;16.30;99.90
34574;DHT22;20809;49.594;8.734;2023-04-25T13:06:35;16.30;99.90
34574;DHT22;20809;49.594;8.734;2023-04-25T13:09:36;16.30;99.90
34574;DHT22;20809;49.594;8.734;2023-04-25T13:12:37;16.70;99.90
34574;DHT22;20809;49.594;8.734;2023-04-25T13:15:37;17.10;99.90
34574;DHT22;20809;49.594;8.734;2023-04-25T13:18:38;17.00;99.90
34574;DHT22;20809;49.594;8.734;2023-04-25T13:21:38;16.80;99.90
34574;DHT22;20809;49.594;8.734;2023-04-25T13:24:39;16.50;99.90
34574;DHT22;20809;49.594;8.734;2023-04-25T13:27:40;15.60;99.90
34574;DHT22;20809;49.594;8.734;2023-04-25T13:30:41;14.70;99.90
34574;DHT22;20809;49.594;8.734;2023-04-25T13:33:42;14.20;99.90
34574;DHT22;20809;49.594;8.734;2023-04-25T13:36:43;13.60;99.90
34574;DHT22;20809;49.594;8.734;2023-04-25T13:39:43;13.30;99.90
34574;DHT22;20809;49.594;8.734;2023-04-25T13:42:44;13.10;99.90
34574;DHT22;20809;49.594;8.734;2023-04-25T13:45:46;13.40;99.90
34574;DHT22;20809;49.594;8.734;2023-04-25T13:48:46;13.60;99.90
34574;DHT22;20809;49.594;8.734;2023-04-25T13:51:48;13.60;99.90
34574;DHT22;20809;49.594;8.734;2023-04-25T13:54:52;13.50;99.90
34574;DHT22;20809;49.594;8.734;2023-04-25T13:57:53;13.50;99.90
34574;DHT22;20809;49.594;8.734;2023-04-25T14:00:54;13.80;99.90
34574;DHT22;20809;49.594;8.734;2023-04-25T14:03:54;13.70;99.90
34574;DHT22;20809;49.594;8.734;2023-04-25T14:06:55;13.80;99.90
34574;DHT22;20809;49.594;8.734;2023-04-25T14:09:56;14.00;99.90
34574;DHT22;20809;49.594;8.734;2023-04-25T14:12:57;14.50;99.90
34574;DHT22;20809;49.594;8.734;2023-04-25T14:15:58;14.70;99.90
34574;DHT22;20809;49.594;8.734;2023-04-25T14:18:58;14.30;99.90
34574;DHT22;20809;49.594;8.734;2023-04-25T14:21:59;13.80;99.90
34574;DHT22;20809;49.594;8.734;2023-04-25T14:25:00;13.70;99.90
34574;DHT22;20809;49.594;8.734;2023-04-25T14:28:00;13.30;99.90
34574;DHT22;20809;49.594;8.734;2023-04-25T14:31:01;13.10;99.90
34574;DHT22;20809;49.594;8.734;2023-04-25T14:34:02;13.20;99.90
34574;DHT22;20809;49.594;8.734;2023-04-25T14:37:02;13.40;99.90
34574;DHT22;20809;49.594;8.734;2023-04-25T14:40:03;13.40;99.90
34574;DHT22;20809;49.594;8.734;2023-04-25T14:43:05;12.90;99.90
34574;DHT22;20809;49.594;8.734;2023-04-25T14:46:06;12.70;99.90
34574;DHT22;20809;49.594;8.734;2023-04-25T14:49:06;12.90;99.90
34574;DHT22;20809;49.594;8.734;2023-04-25T14:52:07;13.10;99.90
34574;DHT22;20809;49.594;8.734;2023-04-25T14:55:08;13.20;99.90
34574;DHT22;20809;49.594;8.734;2023-04-25T14:58:09;13.30;99.90
34574;DHT22;20809;49.594;8.734;2023-04-25T15:01:10;13.30;99.90
34574;DHT22;20809;49.594;8.734;2023-04-25T15:04:11;13.50;99.90
34574;DHT22;20809;49.594;8.734;2023-04-25T15:07:12;13.60;99.90
34574;DHT22;20809;49.594;8.734;2023-04-25T15:10:13;13.30;99.90
34574;DHT22;20809;49.594;8.734;2023-04-25T15:13:18;13.20;99.90
34574;DHT22;20809;49.594;8.734;2023-04-25T15:16:18;12.90;99.90
34574;DHT22;20809;49.594;8.734;2023-04-25T15:19:20;12.50;99.90
34574;DHT22;20809;49.594;8.734;2023-04-25T15:22:20;12.50;99.90
34574;DHT22;20809;49.594;8.734;2023-04-25T15:25:21;12.50;99.90
34574;DHT22;20809;49.594;8.734;2023-04-25T15:28:22;12.50;99.90
34574;DHT22;20809;49.594;8.734;2023-04-25T15:31:23;12.40;99.90
34574;DHT22;20809;49.594;8.734;2023-04-25T15:34:23;12.40;99.90
34574;DHT22;20809;49.594;8.734;2023-04-25T15:37:24;12.30;99.90
34574;DHT22;20809;49.594;8.734;2023-04-25T15:40:25;12.20;99.90
34574;DHT22;20809;49.594;8.734;2023-04-25T15:43:29;12.20;99.90
34574;DHT22;20809;49.594;8.734;2023-04-25T15:46:30;12.20;99.90
34574;DHT22;20809;49.594;8.734;2023-04-25T15:49:30;12.30;99.90
34574;DHT22;20809;49.594;8.734;2023-04-25T15:52:31;12.30;99.90
34574;DHT22;20809;49.594;8.734;2023-04-25T15:55:33;12.40;99.90
34574;DHT22;20809;49.594;8.734;2023-04-25T15:58:34;12.40;99.90
34574;DHT22;20809;49.594;8.734;2023-04-25T16:01:35;12.20;99.90
34574;DHT22;20809;49.594;8.734;2023-04-25T16:04:37;12.00;99.90
34574;DHT22;20809;49.594;8.734;2023-04-25T16:07:38;12.20;99.90
34574;DHT22;20809;49.594;8.734;2023-04-25T16:10:39;12.40;99.90
34574;DHT22;20809;49.594;8.734;2023-04-25T16:13:40;12.40;99.90
34574;DHT22;20809;49.594;8.734;2023-04-25T16:16:41;12.20;99.90
34574;DHT22;20809;49.594;8.734;2023-04-25T16:19:44;12.00;99.90
34574;DHT22;20809;49.594;8.734;2023-04-25T16:22:44;11.90;99.90
34574;DHT22;20809;49.594;8.734;2023-04-25T16:25:46;11.90;99.90
34574;DHT22;20809;49.594;8.734;2023-04-25T16:28:47;11.70;99.90
34574;DHT22;20809;49.594;8.734;2023-04-25T16:31:48;11.60;99.90
34574;DHT22;20809;49.594;8.734;2023-04-25T16:34:49;11.70;99.90
34574;DHT22;20809;49.594;8.734;2023-04-25T16:37:49;11.90;99.90
34574;DHT22;20809;49.594;8.734;2023-04-25T16:40:50;12.00;99.90
34574;DHT22;20809;49.594;8.734;2023-04-25T16:43:53;12.00;99.90
34574;DHT22;20809;49.594;8.734;2023-04-25T16:46:54;11.80;99.90
34574;DHT22;20809;49.594;8.734;2023-04-25T16:49:58;11.70;99.90
34574;DHT22;20809;49.594;8.734;2023-04-25T16:53:00;11.60;99.90
34574;DHT22;20809;49.594;8.734;2023-04-25T16:56:00;11.40;99.90
34574;DHT22;20809;49.594;8.734;2023-04-25T16:59:01;11.50;99.90
34574;DHT22;20809;49.594;8.734;2023-04-25T17:02:02;11.50;99.90
34574;DHT22;20809;49.594;8.734;2023-04-25T17:05:03;11.60;99.90
34574;DHT22;20809;49.594;8.734;2023-04-25T17:08:04;11.60;99.90
34574;DHT22;20809;49.594;8.734;2023-04-25T17:11:06;11.70;99.90
34574;DHT22;20809;49.594;8.734;2023-04-25T17:14:07;11.70;99.90
34574;DHT22;20809;49.594;8.734;2023-04-25T17:17:08;11.70;99.90
34574;DHT22;20809;49.594;8.734;2023-04-25T17:20:09;11.50;99.90
34574;DHT22;20809;49.594;8.734;2023-04-25T17:23:09;11.30;99.90
34574;DHT22;20809;49.594;8.734;2023-04-25T17:26:14;11.00;99.90
34574;DHT22;20809;49.594;8.734;2023-04-25T17:29:17;11.00;99.90
34574;DHT22;20809;49.594;8.734;2023-04-25T17:32:18;10.80;99.90
34574;DHT22;20809;49.594;8.734;2023-04-25T17:35:19;10.70;99.90
34574;DHT22;20809;49.594;8.734;2023-04-25T17:38:20;10.60;99.90
34574;DHT22;20809;49.594;8.734;2023-04-25T17:41:21;10.50;99.90
34574;DHT22;20809;49.594;8.734;2023-04-25T17:44:22;10.30;99.90
34574;DHT22;20809;49.594;8.734;2023-04-25T17:47:23;10.30;99.90
34574;DHT22;20809;49.594;8.734;2023-04-25T17:50:24;10.30;99.90
34574;DHT22;20809;49.594;8.734;2023-04-25T17:53:24;10.30;99.90
34574;DHT22;20809;49.594;8.734;2023-04-25T17:56:25;10.30;99.90
34574;DHT22;20809;49.594;8.734;2023-04-25T17:59:26;10.30;99.90
34574;DHT22;20809;49.594;8.734;2023-04-25T18:02:27;10.20;99.90
34574;DHT22;20809;49.594;8.734;2023-04-25T18:05:28;10.30;99.90
34574;DHT22;20809;49.594;8.734;2023-04-25T18:08:29;10.30;99.90
34574;DHT22;20809;49.594;8.734;2023-04-25T18:11:30;10.30;99.90
34574;DHT22;20809;49.594;8.734;2023-04-25T18:14:31;10.20;99.90
34574;DHT22;20809;49.594;8.734;2023-04-25T18:17:34;10.20;99.90
34574;DHT22;20809;49.594;8.734;2023-04-25T18:20:41;10.10;99.90
34574;DHT22;20809;49.594;8.734;2023-04-25T18:23:42;10.00;99.90
34574;DHT22;20809;49.594;8.734;2023-04-25T18:26:44;9.90;99.90
34574;DHT22;20809;49.594;8.734;2023-04-25T18:29:45;9.90;99.90
34574;DHT22;20809;49.594;8.734;2023-04-25T18:32:45;9.80;99.90
34574;DHT22;20809;49.594;8.734;2023-04-25T18:35:46;9.70;99.90
34574;DHT22;20809;49.594;8.734;2023-04-25T18:38:48;9.70;99.90
34574;DHT22;20809;49.594;8.734;2023-04-25T18:41:53;9.60;99.90
34574;DHT22;20809;49.594;8.734;2023-04-25T18:44:57;9.50;99.90
34574;DHT22;20809;49.594;8.734;2023-04-25T18:47:57;9.50;99.90
34574;DHT22;20809;49.594;8.734;2023-04-25T18:50:58;9.40;99.90
34574;DHT22;20809;49.594;8.734;2023-04-25T18:54:00;9.40;99.90
34574;DHT22;20809;49.594;8.734;2023-04-25T18:57:01;9.40;99.90
34574;DHT22;20809;49.594;8.734;2023-04-25T19:00:03;9.40;99.90
34574;DHT22;20809;49.594;8.734;2023-04-25T19:03:04;9.30;99.90
34574;DHT22;20809;49.594;8.734;2023-04-25T19:06:05;9.30;99.90
34574;DHT22;20809;49.594;8.734;2023-04-25T19:09:06;9.20;99.90
34574;DHT22;20809;49.594;8.734;2023-04-25T19:12:09;9.10;99.90
34574;DHT22;20809;49.594;8.734;2023-04-25T19:15:10;9.00;99.90
34574;DHT22;20809;49.594;8.734;2023-04-25T19:18:11;9.00;99.90
34574;DHT22;20809;49.594;8.734;2023-04-25T19:21:12;8.80;99.90
34574;DHT22;20809;49.594;8.734;2023-04-25T19:24:12;8.70;99.90
34574;DHT22;20809;49.594;8.734;2023-04-25T19:27:13;8.70;99.90
34574;DHT22;20809;49.594;8.734;2023-04-25T19:30:14;8.60;99.90
34574;DHT22;20809;49.594;8.734;2023-04-25T19:33:15;8.60;99.90
34574;DHT22;20809;49.594;8.734;2023-04-25T19:36:15;8.50;99.90
34574;DHT22;20809;49.594;8.734;2023-04-25T19:39:16;8.40;99.90
34574;DHT22;20809;49.594;8.734;2023-04-25T19:42:17;8.40;99.90
34574;DHT22;20809;49.594;8.734;2023-04-25T19:45:20;8.30;99.90
34574;DHT22;20809;49.594;8.734;2023-04-25T19:48:21;8.30;99.90
34574;DHT22;20809;49.594;8.734;2023-04-25T19:51:21;8.20;99.90
34574;DHT22;20809;49.594;8.734;2023-04-25T19:54:22;8.10;99.90
34574;DHT22;20809;49.594;8.734;2023-04-25T19:57:23;8.20;99.90
34574;DHT22;20809;49.594;8.734;2023-04-25T20:00:25;8.20;99.90
34574;DHT22;20809;49.594;8.734;2023-04-25T20:03:26;8.10;99.90
34574;DHT22;20809;49.594;8.734;2023-04-25T20:06:26;8.20;99.90
34574;DHT22;20809;49.594;8.734;2023-04-25T20:09:28;8.20;99.90
34574;DHT22;20809;49.594;8.734;2023-04-25T20:12:28;8.10;99.90
34574;DHT22;20809;49.594;8.734;2023-04-25T20:15:29;8.10;99.90
34574;DHT22;20809;49.594;8.734;2023-04-25T20:18:30;8.10;99.90